sensor_id;sensor_type;location;lat;lon;timestamp;P1;durP1;ratioP1;P2;durP2;ratioP2
30515;SDS011;17297;54.022;10.760;2023-04-22T00:00:25;4.03;;;3.15;;
30515;SDS011;17297;54.022;10.760;2023-04-22T00:02:51;5.38;;;3.47;;
30515;SDS011;17297;54.022;10.760;2023-04-22T00:05:16;4.65;;;3.25;;
30515;SDS011;17297;54.022;10.760;2023-04-22T00:07:42;3.72;;;2.92;;
30515;SDS011;17297;54.022;10.760;2023-04-22T00:10:08;6.43;;;3.67;;
30515;SDS011;17297;54.022;10.760;2023-04-22T00:12:35;6.25;;;3.33;;
30515;SDS011;17297;54.022;10.760;2023-04-22T00:15:00;6.97;;;3.63;;
30515;SDS011;17297;54.022;10.760;2023-04-22T00:17:25;7.57;;;3.78;;
30515;SDS011;17297;54.022;10.760;2023-04-22T00:19:51;5.25;;;3.42;;
30515;SDS011;17297;54.022;10.760;2023-04-22T00:22:16;4.95;;;3.35;;
30515;SDS011;17297;54.022;10.760;2023-04-22T00:24:42;5.60;;;4.22;;
30515;SDS011;17297;54.022;10.760;2023-04-22T00:27:07;6.13;;;4.03;;
30515;SDS011;17297;54.022;10.760;2023-04-22T00:29:33;8.52;;;4.10;;
30515;SDS011;17297;54.022;10.760;2023-04-22T00:31:58;5.68;;;3.75;;
30515;SDS011;17297;54.022;10.760;2023-04-22T00:34:24;6.53;;;3.67;;
30515;SDS011;17297;54.022;10.760;2023-04-22T00:36:49;6.07;;;3.40;;
30515;SDS011;17297;54.022;10.760;2023-04-22T00:39:15;5.55;;;4.10;;
30515;SDS011;17297;54.022;10.760;2023-04-22T00:41:41;6.53;;;4.15;;
30515;SDS011;17297;54.022;10.760;2023-04-22T00:44:10;6.30;;;4.32;;
30515;SDS011;17297;54.022;10.760;2023-04-22T00:46:36;7.85;;;3.60;;
30515;SDS011;17297;54.022;10.760;2023-04-22T00:49:03;6.65;;;4.28;;
30515;SDS011;17297;54.022;10.760;2023-04-22T00:51:28;5.93;;;3.92;;
30515;SDS011;17297;54.022;10.760;2023-04-22T00:53:54;6.55;;;3.97;;
30515;SDS011;17297;54.022;10.760;2023-04-22T00:56:19;6.32;;;3.75;;
30515;SDS011;17297;54.022;10.760;2023-04-22T00:58:46;5.82;;;4.00;;
30515;SDS011;17297;54.022;10.760;2023-04-22T01:01:11;6.82;;;4.25;;
30515;SDS011;17297;54.022;10.760;2023-04-22T01:03:37;5.68;;;3.95;;
30515;SDS011;17297;54.022;10.760;2023-04-22T01:06:04;6.90;;;3.97;;
30515;SDS011;17297;54.022;10.760;2023-04-22T01:08:30;5.57;;;4.55;;
30515;SDS011;17297;54.022;10.760;2023-04-22T01:10:56;5.43;;;4.03;;
30515;SDS011;17297;54.022;10.760;2023-04-22T01:13:21;5.57;;;3.97;;
30515;SDS011;17297;54.022;10.760;2023-04-22T01:15:49;6.63;;;4.30;;
30515;SDS011;17297;54.022;10.760;2023-04-22T01:18:15;6.57;;;4.03;;
30515;SDS011;17297;54.022;10.760;2023-04-22T01:20:40;5.50;;;4.25;;
30515;SDS011;17297;54.022;10.760;2023-04-22T01:23:06;6.38;;;3.80;;
30515;SDS011;17297;54.022;10.760;2023-04-22T01:25:42;7.95;;;4.35;;
30515;SDS011;17297;54.022;10.760;2023-04-22T01:28:07;6.85;;;4.18;;
30515;SDS011;17297;54.022;10.760;2023-04-22T01:30:33;5.30;;;4.32;;
30515;SDS011;17297;54.022;10.760;2023-04-22T01:32:59;7.30;;;4.57;;
30515;SDS011;17297;54.022;10.760;2023-04-22T01:35:24;6.18;;;4.00;;
30515;SDS011;17297;54.022;10.760;2023-04-22T01:37:49;7.20;;;3.85;;
30515;SDS011;17297;54.022;10.760;2023-04-22T01:40:15;8.32;;;4.65;;
30515;SDS011;17297;54.022;10.760;2023-04-22T01:42:44;6.93;;;4.43;;
30515;SDS011;17297;54.022;10.760;2023-04-22T01:45:10;9.48;;;4.68;;
30515;SDS011;17297;54.022;10.760;2023-04-22T01:47:37;6.07;;;4.35;;
30515;SDS011;17297;54.022;10.760;2023-04-22T01:50:02;7.55;;;4.45;;
30515;SDS011;17297;54.022;10.760;2023-04-22T01:52:28;7.65;;;5.05;;
30515;SDS011;17297;54.022;10.760;2023-04-22T01:54:54;5.57;;;4.30;;
30515;SDS011;17297;54.022;10.760;2023-04-22T01:57:20;6.80;;;4.82;;
30515;SDS011;17297;54.022;10.760;2023-04-22T01:59:45;9.60;;;4.35;;
30515;SDS011;17297;54.022;10.760;2023-04-22T02:02:10;6.50;;;4.50;;
30515;SDS011;17297;54.022;10.760;2023-04-22T02:04:36;7.55;;;4.80;;
30515;SDS011;17297;54.022;10.760;2023-04-22T02:07:01;5.88;;;4.20;;
30515;SDS011;17297;54.022;10.760;2023-04-22T02:09:27;7.25;;;3.95;;
30515;SDS011;17297;54.022;10.760;2023-04-22T02:11:52;4.65;;;3.72;;
30515;SDS011;17297;54.022;10.760;2023-04-22T02:14:19;4.78;;;4.03;;
30515;SDS011;17297;54.022;10.760;2023-04-22T02:16:45;4.43;;;4.03;;
30515;SDS011;17297;54.022;10.760;2023-04-22T02:19:10;4.80;;;3.67;;
30515;SDS011;17297;54.022;10.760;2023-04-22T02:21:35;6.05;;;3.63;;
30515;SDS011;17297;54.022;10.760;2023-04-22T02:24:02;6.57;;;4.05;;
30515;SDS011;17297;54.022;10.760;2023-04-22T02:26:27;4.55;;;3.83;;
30515;SDS011;17297;54.022;10.760;2023-04-22T02:28:52;6.18;;;4.25;;
30515;SDS011;17297;54.022;10.760;2023-04-22T02:31:18;5.93;;;4.00;;
30515;SDS011;17297;54.022;10.760;2023-04-22T02:33:43;8.23;;;4.90;;
30515;SDS011;17297;54.022;10.760;2023-04-22T02:36:09;7.03;;;4.15;;
30515;SDS011;17297;54.022;10.760;2023-04-22T02:38:35;6.65;;;4.28;;
30515;SDS011;17297;54.022;10.760;2023-04-22T02:41:01;4.63;;;4.18;;
30515;SDS011;17297;54.022;10.760;2023-04-22T02:43:26;7.88;;;4.63;;
30515;SDS011;17297;54.022;10.760;2023-04-22T02:45:51;5.97;;;4.38;;
30515;SDS011;17297;54.022;10.760;2023-04-22T02:48:17;8.15;;;4.63;;
30515;SDS011;17297;54.022;10.760;2023-04-22T02:50:42;8.30;;;5.10;;
30515;SDS011;17297;54.022;10.760;2023-04-22T02:53:08;5.25;;;4.20;;
30515;SDS011;17297;54.022;10.760;2023-04-22T02:55:33;7.60;;;4.13;;
30515;SDS011;17297;54.022;10.760;2023-04-22T02:57:59;5.22;;;4.55;;
30515;SDS011;17297;54.022;10.760;2023-04-22T03:00:24;5.88;;;3.80;;
30515;SDS011;17297;54.022;10.760;2023-04-22T03:02:50;5.15;;;4.25;;
30515;SDS011;17297;54.022;10.760;2023-04-22T03:05:18;8.98;;;5.28;;
30515;SDS011;17297;54.022;10.760;2023-04-22T03:07:43;11.57;;;5.32;;
30515;SDS011;17297;54.022;10.760;2023-04-22T03:10:12;5.38;;;4.55;;
30515;SDS011;17297;54.022;10.760;2023-04-22T03:12:37;4.85;;;3.97;;
30515;SDS011;17297;54.022;10.760;2023-04-22T03:15:03;7.95;;;5.28;;
30515;SDS011;17297;54.022;10.760;2023-04-22T03:17:30;8.63;;;4.65;;
30515;SDS011;17297;54.022;10.760;2023-04-22T03:19:57;6.07;;;4.13;;
30515;SDS011;17297;54.022;10.760;2023-04-22T03:22:23;6.25;;;4.35;;
30515;SDS011;17297;54.022;10.760;2023-04-22T03:24:50;5.45;;;4.88;;
30515;SDS011;17297;54.022;10.760;2023-04-22T03:27:16;6.45;;;4.78;;
30515;SDS011;17297;54.022;10.760;2023-04-22T03:29:42;6.55;;;4.35;;
30515;SDS011;17297;54.022;10.760;2023-04-22T03:32:07;9.18;;;4.60;;
30515;SDS011;17297;54.022;10.760;2023-04-22T03:34:34;6.32;;;4.75;;
30515;SDS011;17297;54.022;10.760;2023-04-22T03:36:59;7.05;;;5.03;;
30515;SDS011;17297;54.022;10.760;2023-04-22T03:39:25;9.82;;;5.03;;
30515;SDS011;17297;54.022;10.760;2023-04-22T03:41:50;6.25;;;5.22;;
30515;SDS011;17297;54.022;10.760;2023-04-22T03:44:16;5.97;;;4.57;;
30515;SDS011;17297;54.022;10.760;2023-04-22T03:46:42;6.07;;;4.90;;
30515;SDS011;17297;54.022;10.760;2023-04-22T03:49:19;7.55;;;4.90;;
30515;SDS011;17297;54.022;10.760;2023-04-22T03:51:45;6.28;;;5.00;;
30515;SDS011;17297;54.022;10.760;2023-04-22T03:54:15;7.85;;;5.22;;
30515;SDS011;17297;54.022;10.760;2023-04-22T03:56:48;5.68;;;4.63;;
30515;SDS011;17297;54.022;10.760;2023-04-22T03:59:13;8.82;;;5.47;;
30515;SDS011;17297;54.022;10.760;2023-04-22T04:01:39;5.80;;;4.85;;
30515;SDS011;17297;54.022;10.760;2023-04-22T04:04:06;5.68;;;4.07;;
30515;SDS011;17297;54.022;10.760;2023-04-22T04:06:48;7.68;;;4.28;;
30515;SDS011;17297;54.022;10.760;2023-04-22T04:09:14;7.22;;;4.57;;
30515;SDS011;17297;54.022;10.760;2023-04-22T04:11:39;5.72;;;4.25;;
30515;SDS011;17297;54.022;10.760;2023-04-22T04:14:06;7.10;;;5.25;;
30515;SDS011;17297;54.022;10.760;2023-04-22T04:16:44;6.70;;;5.45;;
30515;SDS011;17297;54.022;10.760;2023-04-22T04:19:15;7.05;;;5.20;;
30515;SDS011;17297;54.022;10.760;2023-04-22T04:21:40;6.47;;;5.07;;
30515;SDS011;17297;54.022;10.760;2023-04-22T04:24:06;9.43;;;5.70;;
30515;SDS011;17297;54.022;10.760;2023-04-22T04:26:37;6.40;;;5.10;;
30515;SDS011;17297;54.022;10.760;2023-04-22T04:29:08;6.53;;;4.88;;
30515;SDS011;17297;54.022;10.760;2023-04-22T04:31:36;7.22;;;5.05;;
30515;SDS011;17297;54.022;10.760;2023-04-22T04:34:03;9.00;;;5.53;;
30515;SDS011;17297;54.022;10.760;2023-04-22T04:36:30;5.40;;;4.75;;
30515;SDS011;17297;54.022;10.760;2023-04-22T04:39:06;8.95;;;5.05;;
30515;SDS011;17297;54.022;10.760;2023-04-22T04:41:33;6.03;;;5.07;;
30515;SDS011;17297;54.022;10.760;2023-04-22T04:43:58;8.63;;;5.60;;
30515;SDS011;17297;54.022;10.760;2023-04-22T04:46:31;8.10;;;5.60;;
30515;SDS011;17297;54.022;10.760;2023-04-22T04:48:58;6.70;;;5.30;;
30515;SDS011;17297;54.022;10.760;2023-04-22T04:51:26;8.13;;;5.25;;
30515;SDS011;17297;54.022;10.760;2023-04-22T04:53:55;7.65;;;5.53;;
30515;SDS011;17297;54.022;10.760;2023-04-22T04:56:21;7.85;;;4.82;;
30515;SDS011;17297;54.022;10.760;2023-04-22T04:58:48;7.30;;;4.93;;
30515;SDS011;17297;54.022;10.760;2023-04-22T05:01:17;6.50;;;4.53;;
30515;SDS011;17297;54.022;10.760;2023-04-22T05:03:44;5.47;;;4.70;;
30515;SDS011;17297;54.022;10.760;2023-04-22T05:06:12;5.50;;;4.63;;
30515;SDS011;17297;54.022;10.760;2023-04-22T05:08:41;5.57;;;4.85;;
30515;SDS011;17297;54.022;10.760;2023-04-22T05:11:08;6.15;;;4.55;;
30515;SDS011;17297;54.022;10.760;2023-04-22T05:13:33;6.75;;;4.40;;
30515;SDS011;17297;54.022;10.760;2023-04-22T05:15:59;7.50;;;4.53;;
30515;SDS011;17297;54.022;10.760;2023-04-22T05:18:25;6.10;;;4.85;;
30515;SDS011;17297;54.022;10.760;2023-04-22T05:20:51;4.97;;;4.32;;
30515;SDS011;17297;54.022;10.760;2023-04-22T05:23:19;6.22;;;3.85;;
30515;SDS011;17297;54.022;10.760;2023-04-22T05:25:45;4.55;;;4.00;;
30515;SDS011;17297;54.022;10.760;2023-04-22T05:28:12;5.80;;;4.22;;
30515;SDS011;17297;54.022;10.760;2023-04-22T05:30:49;4.75;;;4.13;;
30515;SDS011;17297;54.022;10.760;2023-04-22T05:33:14;6.85;;;4.30;;
30515;SDS011;17297;54.022;10.760;2023-04-22T05:35:40;5.57;;;3.83;;
30515;SDS011;17297;54.022;10.760;2023-04-22T05:38:07;5.53;;;4.38;;
30515;SDS011;17297;54.022;10.760;2023-04-22T05:40:36;7.07;;;3.92;;
30515;SDS011;17297;54.022;10.760;2023-04-22T05:43:03;7.35;;;3.95;;
30515;SDS011;17297;54.022;10.760;2023-04-22T05:45:29;7.32;;;4.75;;
30515;SDS011;17297;54.022;10.760;2023-04-22T05:47:54;6.47;;;4.78;;
30515;SDS011;17297;54.022;10.760;2023-04-22T05:50:21;5.07;;;4.22;;
30515;SDS011;17297;54.022;10.760;2023-04-22T05:52:52;5.75;;;4.65;;
30515;SDS011;17297;54.022;10.760;2023-04-22T05:55:18;5.55;;;4.93;;
30515;SDS011;17297;54.022;10.760;2023-04-22T05:57:43;6.18;;;4.40;;
30515;SDS011;17297;54.022;10.760;2023-04-22T06:00:25;5.93;;;4.15;;
30515;SDS011;17297;54.022;10.760;2023-04-22T06:03:04;7.70;;;5.10;;
30515;SDS011;17297;54.022;10.760;2023-04-22T06:05:30;6.18;;;4.88;;
30515;SDS011;17297;54.022;10.760;2023-04-22T06:07:56;4.65;;;3.90;;
30515;SDS011;17297;54.022;10.760;2023-04-22T06:10:21;4.60;;;4.05;;
30515;SDS011;17297;54.022;10.760;2023-04-22T06:12:47;7.35;;;4.45;;
30515;SDS011;17297;54.022;10.760;2023-04-22T06:15:12;7.97;;;4.40;;
30515;SDS011;17297;54.022;10.760;2023-04-22T06:17:39;6.03;;;3.80;;
30515;SDS011;17297;54.022;10.760;2023-04-22T06:20:05;6.63;;;5.22;;
30515;SDS011;17297;54.022;10.760;2023-04-22T06:22:31;7.93;;;4.70;;
30515;SDS011;17297;54.022;10.760;2023-04-22T06:24:56;5.60;;;4.85;;
30515;SDS011;17297;54.022;10.760;2023-04-22T06:27:22;6.13;;;4.72;;
30515;SDS011;17297;54.022;10.760;2023-04-22T06:29:47;5.10;;;4.43;;
30515;SDS011;17297;54.022;10.760;2023-04-22T06:32:12;5.65;;;4.65;;
30515;SDS011;17297;54.022;10.760;2023-04-22T06:34:40;5.80;;;4.43;;
30515;SDS011;17297;54.022;10.760;2023-04-22T06:37:05;5.32;;;4.00;;
30515;SDS011;17297;54.022;10.760;2023-04-22T06:39:31;6.50;;;4.80;;
30515;SDS011;17297;54.022;10.760;2023-04-22T06:42:04;5.22;;;4.38;;
30515;SDS011;17297;54.022;10.760;2023-04-22T06:45:08;5.85;;;4.10;;
30515;SDS011;17297;54.022;10.760;2023-04-22T06:47:52;6.78;;;4.82;;
30515;SDS011;17297;54.022;10.760;2023-04-22T06:50:21;4.47;;;4.07;;
30515;SDS011;17297;54.022;10.760;2023-04-22T06:52:53;5.10;;;4.03;;
30515;SDS011;17297;54.022;10.760;2023-04-22T06:55:18;4.82;;;4.20;;
30515;SDS011;17297;54.022;10.760;2023-04-22T06:57:44;4.75;;;4.07;;
30515;SDS011;17297;54.022;10.760;2023-04-22T07:00:09;4.28;;;3.88;;
30515;SDS011;17297;54.022;10.760;2023-04-22T07:02:37;5.22;;;3.92;;
30515;SDS011;17297;54.022;10.760;2023-04-22T07:05:03;5.35;;;4.00;;
30515;SDS011;17297;54.022;10.760;2023-04-22T07:07:29;5.78;;;4.20;;
30515;SDS011;17297;54.022;10.760;2023-04-22T07:09:55;7.35;;;5.07;;
30515;SDS011;17297;54.022;10.760;2023-04-22T07:12:21;5.45;;;4.05;;
30515;SDS011;17297;54.022;10.760;2023-04-22T07:14:49;5.75;;;4.32;;
30515;SDS011;17297;54.022;10.760;2023-04-22T07:17:14;4.75;;;4.25;;
30515;SDS011;17297;54.022;10.760;2023-04-22T07:19:43;5.05;;;4.55;;
30515;SDS011;17297;54.022;10.760;2023-04-22T07:22:08;4.78;;;4.30;;
30515;SDS011;17297;54.022;10.760;2023-04-22T07:24:34;7.55;;;4.35;;
30515;SDS011;17297;54.022;10.760;2023-04-22T07:26:59;7.22;;;4.55;;
30515;SDS011;17297;54.022;10.760;2023-04-22T07:29:27;4.65;;;4.25;;
30515;SDS011;17297;54.022;10.760;2023-04-22T07:31:52;6.10;;;4.95;;
30515;SDS011;17297;54.022;10.760;2023-04-22T07:34:18;8.65;;;5.13;;
30515;SDS011;17297;54.022;10.760;2023-04-22T07:36:43;7.50;;;5.35;;
30515;SDS011;17297;54.022;10.760;2023-04-22T07:39:08;12.80;;;6.15;;
30515;SDS011;17297;54.022;10.760;2023-04-22T07:41:34;6.50;;;5.78;;
30515;SDS011;17297;54.022;10.760;2023-04-22T07:44:00;8.35;;;4.78;;
30515;SDS011;17297;54.022;10.760;2023-04-22T07:46:25;6.20;;;5.57;;
30515;SDS011;17297;54.022;10.760;2023-04-22T07:48:51;6.38;;;5.78;;
30515;SDS011;17297;54.022;10.760;2023-04-22T07:51:16;5.68;;;5.13;;
30515;SDS011;17297;54.022;10.760;2023-04-22T07:53:41;5.88;;;4.82;;
30515;SDS011;17297;54.022;10.760;2023-04-22T07:56:07;6.75;;;5.60;;
30515;SDS011;17297;54.022;10.760;2023-04-22T07:58:32;7.22;;;4.82;;
30515;SDS011;17297;54.022;10.760;2023-04-22T08:00:57;6.95;;;6.13;;
30515;SDS011;17297;54.022;10.760;2023-04-22T08:03:23;6.38;;;5.28;;
30515;SDS011;17297;54.022;10.760;2023-04-22T08:05:48;8.32;;;6.53;;
30515;SDS011;17297;54.022;10.760;2023-04-22T08:08:14;7.85;;;5.75;;
30515;SDS011;17297;54.022;10.760;2023-04-22T08:10:39;6.10;;;5.50;;
30515;SDS011;17297;54.022;10.760;2023-04-22T08:13:04;9.55;;;5.82;;
30515;SDS011;17297;54.022;10.760;2023-04-22T08:15:30;7.70;;;5.65;;
30515;SDS011;17297;54.022;10.760;2023-04-22T08:17:55;6.70;;;5.40;;
30515;SDS011;17297;54.022;10.760;2023-04-22T08:20:21;6.22;;;5.63;;
30515;SDS011;17297;54.022;10.760;2023-04-22T08:22:46;7.68;;;5.50;;
30515;SDS011;17297;54.022;10.760;2023-04-22T08:25:12;7.10;;;6.35;;
30515;SDS011;17297;54.022;10.760;2023-04-22T08:27:38;8.23;;;5.60;;
30515;SDS011;17297;54.022;10.760;2023-04-22T08:30:04;7.78;;;6.65;;
30515;SDS011;17297;54.022;10.760;2023-04-22T08:32:30;6.18;;;5.55;;
30515;SDS011;17297;54.022;10.760;2023-04-22T08:34:56;6.90;;;5.80;;
30515;SDS011;17297;54.022;10.760;2023-04-22T08:37:21;6.45;;;5.65;;
30515;SDS011;17297;54.022;10.760;2023-04-22T08:39:47;6.88;;;5.35;;
30515;SDS011;17297;54.022;10.760;2023-04-22T08:42:12;8.82;;;5.38;;
30515;SDS011;17297;54.022;10.760;2023-04-22T08:44:38;6.43;;;5.43;;
30515;SDS011;17297;54.022;10.760;2023-04-22T08:47:03;7.93;;;5.20;;
30515;SDS011;17297;54.022;10.760;2023-04-22T08:49:29;5.18;;;4.45;;
30515;SDS011;17297;54.022;10.760;2023-04-22T08:51:55;6.25;;;4.63;;
30515;SDS011;17297;54.022;10.760;2023-04-22T08:54:22;5.70;;;4.70;;
30515;SDS011;17297;54.022;10.760;2023-04-22T08:56:49;5.53;;;4.47;;
30515;SDS011;17297;54.022;10.760;2023-04-22T08:59:14;6.13;;;5.25;;
30515;SDS011;17297;54.022;10.760;2023-04-22T09:01:40;9.43;;;6.65;;
30515;SDS011;17297;54.022;10.760;2023-04-22T09:04:07;7.97;;;6.80;;
30515;SDS011;17297;54.022;10.760;2023-04-22T09:06:34;9.55;;;6.35;;
30515;SDS011;17297;54.022;10.760;2023-04-22T09:09:00;9.07;;;6.70;;
30515;SDS011;17297;54.022;10.760;2023-04-22T09:11:26;6.63;;;5.93;;
30515;SDS011;17297;54.022;10.760;2023-04-22T09:13:52;6.72;;;6.05;;
30515;SDS011;17297;54.022;10.760;2023-04-22T09:16:18;5.90;;;5.35;;
30515;SDS011;17297;54.022;10.760;2023-04-22T09:18:43;8.35;;;7.22;;
30515;SDS011;17297;54.022;10.760;2023-04-22T09:21:10;8.65;;;7.75;;
30515;SDS011;17297;54.022;10.760;2023-04-22T09:23:51;8.93;;;7.28;;
30515;SDS011;17297;54.022;10.760;2023-04-22T09:26:18;8.15;;;7.35;;
30515;SDS011;17297;54.022;10.760;2023-04-22T09:28:51;13.38;;;7.03;;
30515;SDS011;17297;54.022;10.760;2023-04-22T09:31:19;6.80;;;6.10;;
30515;SDS011;17297;54.022;10.760;2023-04-22T09:33:46;8.43;;;7.05;;
30515;SDS011;17297;54.022;10.760;2023-04-22T09:36:13;9.98;;;7.03;;
30515;SDS011;17297;54.022;10.760;2023-04-22T09:38:38;9.18;;;8.18;;
30515;SDS011;17297;54.022;10.760;2023-04-22T09:41:07;13.98;;;8.38;;
30515;SDS011;17297;54.022;10.760;2023-04-22T09:43:34;9.93;;;8.07;;
30515;SDS011;17297;54.022;10.760;2023-04-22T09:46:02;8.05;;;7.20;;
30515;SDS011;17297;54.022;10.760;2023-04-22T09:48:27;7.65;;;6.95;;
30515;SDS011;17297;54.022;10.760;2023-04-22T09:50:53;7.63;;;6.80;;
30515;SDS011;17297;54.022;10.760;2023-04-22T09:53:18;10.98;;;7.72;;
30515;SDS011;17297;54.022;10.760;2023-04-22T09:55:46;11.43;;;7.80;;
30515;SDS011;17297;54.022;10.760;2023-04-22T09:58:17;18.25;;;7.80;;
30515;SDS011;17297;54.022;10.760;2023-04-22T10:00:51;8.32;;;7.47;;
30515;SDS011;17297;54.022;10.760;2023-04-22T10:03:18;8.15;;;6.90;;
30515;SDS011;17297;54.022;10.760;2023-04-22T10:05:44;10.60;;;5.80;;
30515;SDS011;17297;54.022;10.760;2023-04-22T10:08:10;5.18;;;4.65;;
30515;SDS011;17297;54.022;10.760;2023-04-22T10:10:36;6.05;;;4.43;;
30515;SDS011;17297;54.022;10.760;2023-04-22T10:13:03;20.48;;;6.55;;
30515;SDS011;17297;54.022;10.760;2023-04-22T10:15:33;8.60;;;4.95;;
30515;SDS011;17297;54.022;10.760;2023-04-22T10:18:02;4.85;;;4.38;;
30515;SDS011;17297;54.022;10.760;2023-04-22T10:20:30;5.68;;;4.15;;
30515;SDS011;17297;54.022;10.760;2023-04-22T10:22:59;8.52;;;4.60;;
30515;SDS011;17297;54.022;10.760;2023-04-22T10:25:29;6.03;;;4.32;;
30515;SDS011;17297;54.022;10.760;2023-04-22T10:28:07;4.45;;;3.58;;
30515;SDS011;17297;54.022;10.760;2023-04-22T10:30:38;5.47;;;3.97;;
30515;SDS011;17297;54.022;10.760;2023-04-22T10:36:05;4.38;;;3.88;;
30515;SDS011;17297;54.022;10.760;2023-04-22T10:39:14;4.45;;;3.15;;
30515;SDS011;17297;54.022;10.760;2023-04-22T10:41:22;4.30;;;3.65;;
30515;SDS011;17297;54.022;10.760;2023-04-22T10:43:59;3.90;;;3.53;;
30515;SDS011;17297;54.022;10.760;2023-04-22T10:51:39;4.68;;;3.85;;
30515;SDS011;17297;54.022;10.760;2023-04-22T10:54:06;4.93;;;4.47;;
30515;SDS011;17297;54.022;10.760;2023-04-22T10:56:32;4.05;;;3.70;;
30515;SDS011;17297;54.022;10.760;2023-04-22T10:58:57;6.13;;;3.35;;
30515;SDS011;17297;54.022;10.760;2023-04-22T11:01:26;5.13;;;3.63;;
30515;SDS011;17297;54.022;10.760;2023-04-22T11:03:51;5.07;;;3.95;;
30515;SDS011;17297;54.022;10.760;2023-04-22T11:06:18;4.00;;;3.58;;
30515;SDS011;17297;54.022;10.760;2023-04-22T11:08:49;5.05;;;3.30;;
30515;SDS011;17297;54.022;10.760;2023-04-22T11:11:31;9.23;;;3.72;;
30515;SDS011;17297;54.022;10.760;2023-04-22T11:13:56;5.95;;;3.60;;
30515;SDS011;17297;54.022;10.760;2023-04-22T11:16:22;5.45;;;4.28;;
30515;SDS011;17297;54.022;10.760;2023-04-22T11:18:48;5.05;;;3.53;;
30515;SDS011;17297;54.022;10.760;2023-04-22T11:21:13;5.70;;;3.33;;
30515;SDS011;17297;54.022;10.760;2023-04-22T11:23:39;4.13;;;3.17;;
30515;SDS011;17297;54.022;10.760;2023-04-22T11:26:17;7.80;;;3.75;;
30515;SDS011;17297;54.022;10.760;2023-04-22T11:28:45;6.53;;;4.82;;
30515;SDS011;17297;54.022;10.760;2023-04-22T11:31:11;4.30;;;3.90;;
30515;SDS011;17297;54.022;10.760;2023-04-22T11:33:36;8.15;;;3.72;;
30515;SDS011;17297;54.022;10.760;2023-04-22T11:36:03;6.20;;;3.58;;
30515;SDS011;17297;54.022;10.760;2023-04-22T11:38:29;5.07;;;4.15;;
30515;SDS011;17297;54.022;10.760;2023-04-22T11:40:55;3.47;;;2.90;;
30515;SDS011;17297;54.022;10.760;2023-04-22T11:43:23;3.30;;;3.00;;
30515;SDS011;17297;54.022;10.760;2023-04-22T11:45:49;5.53;;;3.58;;
30515;SDS011;17297;54.022;10.760;2023-04-22T11:48:14;5.53;;;3.67;;
30515;SDS011;17297;54.022;10.760;2023-04-22T11:50:41;6.05;;;3.70;;
30515;SDS011;17297;54.022;10.760;2023-04-22T11:53:15;19.77;;;5.13;;
30515;SDS011;17297;54.022;10.760;2023-04-22T11:55:43;36.83;;;6.13;;
30515;SDS011;17297;54.022;10.760;2023-04-22T11:58:11;4.68;;;3.70;;
30515;SDS011;17297;54.022;10.760;2023-04-22T12:00:43;3.88;;;3.55;;
30515;SDS011;17297;54.022;10.760;2023-04-22T12:03:19;4.20;;;3.10;;
30515;SDS011;17297;54.022;10.760;2023-04-22T12:08:20;5.55;;;3.72;;
30515;SDS011;17297;54.022;10.760;2023-04-22T12:10:54;4.40;;;3.05;;
30515;SDS011;17297;54.022;10.760;2023-04-22T12:13:22;3.10;;;2.80;;
30515;SDS011;17297;54.022;10.760;2023-04-22T12:15:53;4.43;;;3.15;;
30515;SDS011;17297;54.022;10.760;2023-04-22T12:18:27;4.13;;;3.37;;
30515;SDS011;17297;54.022;10.760;2023-04-22T12:23:39;3.80;;;2.45;;
30515;SDS011;17297;54.022;10.760;2023-04-22T12:26:08;2.63;;;1.98;;
30515;SDS011;17297;54.022;10.760;2023-04-22T12:28:35;5.60;;;2.80;;
30515;SDS011;17297;54.022;10.760;2023-04-22T12:31:02;4.38;;;2.88;;
30515;SDS011;17297;54.022;10.760;2023-04-22T12:33:27;3.17;;;2.65;;
30515;SDS011;17297;54.022;10.760;2023-04-22T12:35:53;3.35;;;2.40;;
30515;SDS011;17297;54.022;10.760;2023-04-22T12:38:18;3.10;;;2.80;;
30515;SDS011;17297;54.022;10.760;2023-04-22T12:40:44;2.63;;;1.92;;
30515;SDS011;17297;54.022;10.760;2023-04-22T12:43:09;2.70;;;2.40;;
30515;SDS011;17297;54.022;10.760;2023-04-22T12:45:34;3.10;;;2.80;;
30515;SDS011;17297;54.022;10.760;2023-04-22T12:48:00;2.60;;;2.05;;
30515;SDS011;17297;54.022;10.760;2023-04-22T12:50:26;2.40;;;2.00;;
30515;SDS011;17297;54.022;10.760;2023-04-22T12:52:51;4.82;;;2.38;;
30515;SDS011;17297;54.022;10.760;2023-04-22T12:55:16;3.17;;;2.88;;
30515;SDS011;17297;54.022;10.760;2023-04-22T12:57:44;4.45;;;2.53;;
30515;SDS011;17297;54.022;10.760;2023-04-22T13:00:10;3.13;;;2.58;;
30515;SDS011;17297;54.022;10.760;2023-04-22T13:02:39;3.95;;;3.55;;
30515;SDS011;17297;54.022;10.760;2023-04-22T13:05:07;4.47;;;3.00;;
30515;SDS011;17297;54.022;10.760;2023-04-22T13:07:34;5.10;;;2.65;;
30515;SDS011;17297;54.022;10.760;2023-04-22T13:10:00;3.40;;;2.53;;
30515;SDS011;17297;54.022;10.760;2023-04-22T13:12:25;3.30;;;2.63;;
30515;SDS011;17297;54.022;10.760;2023-04-22T13:14:50;9.85;;;5.70;;
30515;SDS011;17297;54.022;10.760;2023-04-22T13:17:16;3.22;;;2.83;;
30515;SDS011;17297;54.022;10.760;2023-04-22T13:19:41;3.53;;;3.00;;
30515;SDS011;17297;54.022;10.760;2023-04-22T13:22:07;3.25;;;2.45;;
30515;SDS011;17297;54.022;10.760;2023-04-22T13:24:32;3.63;;;2.70;;
30515;SDS011;17297;54.022;10.760;2023-04-22T13:26:57;2.17;;;2.03;;
30515;SDS011;17297;54.022;10.760;2023-04-22T13:29:23;2.70;;;2.47;;
30515;SDS011;17297;54.022;10.760;2023-04-22T13:31:50;2.33;;;2.10;;
30515;SDS011;17297;54.022;10.760;2023-04-22T13:34:15;2.60;;;2.38;;
30515;SDS011;17297;54.022;10.760;2023-04-22T13:36:41;3.05;;;2.60;;
30515;SDS011;17297;54.022;10.760;2023-04-22T13:39:06;2.90;;;2.60;;
30515;SDS011;17297;54.022;10.760;2023-04-22T13:41:33;2.83;;;2.45;;
30515;SDS011;17297;54.022;10.760;2023-04-22T13:43:58;3.33;;;2.60;;
30515;SDS011;17297;54.022;10.760;2023-04-22T13:46:24;2.60;;;2.40;;
30515;SDS011;17297;54.022;10.760;2023-04-22T13:48:49;2.42;;;2.22;;
30515;SDS011;17297;54.022;10.760;2023-04-22T13:51:14;2.58;;;2.30;;
30515;SDS011;17297;54.022;10.760;2023-04-22T13:53:40;2.50;;;2.30;;
30515;SDS011;17297;54.022;10.760;2023-04-22T13:56:05;4.03;;;3.13;;
30515;SDS011;17297;54.022;10.760;2023-04-22T13:58:30;4.00;;;2.47;;
30515;SDS011;17297;54.022;10.760;2023-04-22T14:00:56;3.28;;;2.17;;
30515;SDS011;17297;54.022;10.760;2023-04-22T14:03:21;2.15;;;1.98;;
30515;SDS011;17297;54.022;10.760;2023-04-22T14:05:48;3.17;;;1.95;;
30515;SDS011;17297;54.022;10.760;2023-04-22T14:08:14;2.78;;;2.15;;
30515;SDS011;17297;54.022;10.760;2023-04-22T14:10:39;2.53;;;2.33;;
30515;SDS011;17297;54.022;10.760;2023-04-22T14:13:05;3.72;;;3.17;;
30515;SDS011;17297;54.022;10.760;2023-04-22T14:15:30;2.35;;;2.15;;
30515;SDS011;17297;54.022;10.760;2023-04-22T14:17:55;3.22;;;2.20;;
30515;SDS011;17297;54.022;10.760;2023-04-22T14:20:23;2.25;;;2.05;;
30515;SDS011;17297;54.022;10.760;2023-04-22T14:22:51;2.60;;;2.22;;
30515;SDS011;17297;54.022;10.760;2023-04-22T14:25:16;2.88;;;2.33;;
30515;SDS011;17297;54.022;10.760;2023-04-22T14:27:42;2.17;;;1.90;;
30515;SDS011;17297;54.022;10.760;2023-04-22T14:30:08;1.90;;;1.65;;
30515;SDS011;17297;54.022;10.760;2023-04-22T14:32:34;2.30;;;1.90;;
30515;SDS011;17297;54.022;10.760;2023-04-22T14:35:00;2.22;;;2.03;;
30515;SDS011;17297;54.022;10.760;2023-04-22T14:37:25;3.17;;;2.40;;
30515;SDS011;17297;54.022;10.760;2023-04-22T14:39:51;3.70;;;2.53;;
30515;SDS011;17297;54.022;10.760;2023-04-22T14:42:16;2.22;;;1.83;;
30515;SDS011;17297;54.022;10.760;2023-04-22T14:44:43;2.67;;;2.47;;